Flight Track Log - Related Links

Times and Time Zones

All times are in EDT time to prevent confusion due to time zone crossing. See the N6ZQ flight status page for this flight to view local times or setup timezone preferences in your user account.

Time Position Orientation Groundspeed Altitude Reporting Facility
EDT Latitude Longitude Course Direction KTS MPH feet Rate Location/Type
Mon 08:41:52 AM 30.3750 -82.8542 63° Northeast 210 242 3,300  Level Jacksonville Center
Mon 08:42:52 AM 30.3958 -82.8106 61° Northeast 181 208 4,400 1,050 Climbing Jacksonville Center
Mon 08:43:52 AM 30.4208 -82.7625 59° Northeast 171 197 5,400 950 Climbing Jacksonville Center
Mon 08:44:52 AM 30.4417 -82.7142 63° Northeast 166 191 6,300 950 Climbing Jacksonville Center
Mon 08:45:52 AM 30.4625 -82.6661 63° Northeast 166 191 7,300 950 Climbing Jacksonville Center
Mon 08:46:00 AM 30.4463 -82.6668 63° Northeast  Level FlightAware Approximate
Mon 08:46:52 AM 30.4814 -82.6153 67° East 166 191 8,200  Level Jacksonville Center
Mon 08:47:52 AM 30.5000 -82.5672 66° East 161 185 9,200 850 Climbing Jacksonville Center
Mon 08:48:52 AM 30.5375 -82.5525 19° North 135 155 9,900 700 Climbing Jacksonville Center
Mon 08:49:52 AM 30.5875 -82.5522 360° North 140 161 10,600 650 Climbing Jacksonville Center
Mon 08:50:52 AM 30.6336 -82.5547 357° North 154 177 11,200 600 Climbing Jacksonville Center
Mon 08:51:52 AM 30.6836 -82.5569 358° North 167 192 11,800 400 Climbing Jacksonville Center
Mon 08:52:52 AM 30.7381 -82.5567 360° North 180 207 12,000 100 Climbing Jacksonville Center
Mon 08:53:52 AM 30.7964 -82.5564 360° North 190 219 12,000  Level Jacksonville Center
Mon 08:54:52 AM 30.8528 -82.5561 360° North 202 232 12,000  Level Jacksonville Center
Mon 08:55:52 AM 30.9092 -82.5561 360° North 202 232 12,000  Level Jacksonville Center
Mon 08:56:52 AM 30.9675 -82.5583 358° North 197 227 12,000  Level Jacksonville Center
Mon 08:57:52 AM 31.0239 -82.5581 360° North 197 227 12,000  Level Jacksonville Center
Mon 08:58:52 AM 31.0783 -82.5553 North 197 227 12,000  Level Jacksonville Center
Mon 08:59:52 AM 31.1367 -82.5528 North 197 227 12,000  Level Jacksonville Center
Mon 09:00:52 AM 31.1889 -82.5600 353° North 197 227 12,000 150 Level Jacksonville Center
Mon 09:01:52 AM 31.2411 -82.5622 358° North 197 227 12,300 400 Climbing Jacksonville Center
Mon 09:02:52 AM 31.2933 -82.5547 North 187 215 12,800 350 Climbing Jacksonville Center
Mon 09:03:52 AM 31.3414 -82.5447 10° North 176 203 13,000 100 Climbing Jacksonville Center
Mon 09:04:52 AM 31.3978 -82.5347 North 186 214 13,000 50 Level Jacksonville Center
Mon 09:05:52 AM 31.4539 -82.5225 11° North 193 222 13,100 50 Climbing Jacksonville Center
Mon 09:06:52 AM 31.5103 -82.5150 North 198 228 13,100  Level Jacksonville Center
Mon 09:07:52 AM 31.5625 -82.4903 22° Northeast 198 228 13,100  Level Jacksonville Center
Mon 09:08:52 AM 31.6061 -82.4486 39° Northeast 198 228 13,100  Level Jacksonville Center
Mon 09:09:52 AM 31.6583 -82.4117 31° Northeast 203 234 13,100 -50 Level Jacksonville Center
Mon 09:10:52 AM 31.7019 -82.3725 37° Northeast 203 234 13,000 -50 Descending Jacksonville Center
Mon 09:11:52 AM 31.7539 -82.3331 33° Northeast 208 239 13,000 50 Level Jacksonville Center
Mon 09:12:52 AM 31.8039 -82.2911 35° Northeast 208 239 13,100 50 Climbing Jacksonville Center
Mon 09:13:52 AM 31.8517 -82.2492 37° Northeast 214 246 13,100  Level Jacksonville Center
Mon 09:14:52 AM 31.8975 -82.2172 31° Northeast 214 246 13,100 -50 Level Jacksonville Center
Mon 09:15:52 AM 31.9514 -82.1728 35° Northeast 214 246 13,000  Descending Jacksonville Center
Mon 09:16:52 AM 31.9994 -82.1331 35° Northeast 214 246 13,100 50 Climbing Jacksonville Center
Mon 09:17:52 AM 32.0450 -82.0961 35° Northeast 214 246 13,100  Level Jacksonville Center
Mon 09:18:52 AM 32.0969 -82.0514 36° Northeast 207 238 13,100 -50 Level Jacksonville Center
Mon 09:19:52 AM 32.1428 -82.0192 31° Northeast 212 244 13,000 -50 Descending Jacksonville Center
Mon 09:20:52 AM 32.1944 -81.9744 36° Northeast 217 250 13,000  Level Jacksonville Center
Mon 09:21:52 AM 32.2444 -81.9347 34° Northeast 212 244 13,000  Level Jacksonville Center
Mon 09:22:52 AM 32.2878 -81.8972 36° Northeast 217 250 13,000  Level Jacksonville Center
Mon 09:23:52 AM 32.3397 -81.8525 36° Northeast 217 250 13,000  Level Jacksonville Center
Mon 09:24:52 AM 32.3917 -81.8125 33° Northeast 212 244 13,000 -50 Level Jacksonville Center
Mon 09:25:52 AM 32.4331 -81.7775 36° Northeast 212 244 12,900  Descending Jacksonville Center
Mon 09:26:52 AM 32.4869 -81.7325 35° Northeast 217 250 13,000  Climbing Jacksonville Center
Mon 09:27:52 AM 32.5306 -81.6975 34° Northeast 217 250 12,900 -50 Descending Jacksonville Center
Mon 09:28:52 AM 32.5822 -81.6550 35° Northeast 217 250 12,900 50 Level Jacksonville Center
Mon 09:29:52 AM 32.6319 -81.6122 36° Northeast 215 247 13,000 50 Climbing Jacksonville Center
Mon 09:30:52 AM 32.6753 -81.5797 32° Northeast 215 247 13,000  Level Jacksonville Center
Mon 09:31:52 AM 32.7208 -81.5369 38° Northeast 215 247 13,000  Level Jacksonville Center
Mon 09:32:52 AM 32.7725 -81.4942 35° Northeast 215 247 13,000  Level Jacksonville Center
Mon 09:33:52 AM 32.8181 -81.4564 35° Northeast 215 247 13,000  Level Jacksonville Center
Mon 09:34:52 AM 32.8678 -81.4161 34° Northeast 215 247 13,000  Level Jacksonville Center
Mon 09:35:52 AM 32.9153 -81.3781 34° Northeast 215 247 13,000  Level Jacksonville Center
Mon 09:36:52 AM 32.9628 -81.3378 35° Northeast 215 247 13,000  Level Jacksonville Center
Mon 09:37:52 AM 33.0061 -81.2972 38° Northeast 209 241 13,000  Level Jacksonville Center
Mon 09:38:52 AM 33.0600 -81.2617 29° Northeast 209 241 13,000  Level Jacksonville Center
Mon 09:39:52 AM 33.1075 -81.2261 32° Northeast 209 241 13,000  Level Jacksonville Center
Mon 09:40:52 AM 33.1592 -81.1903 30° Northeast 209 241 13,000  Level Jacksonville Center
Mon 09:41:52 AM 33.2089 -81.1547 31° Northeast 204 235 13,000  Level Jacksonville Center
Mon 09:42:52 AM 33.2606 -81.1164 32° Northeast 204 235 13,000  Level Jacksonville Center
Mon 09:43:52 AM 33.3100 -81.0806 31° Northeast 204 235 13,000  Level Jacksonville Center
Mon 09:44:52 AM 33.3575 -81.0450 32° Northeast 204 235 13,000  Level Jacksonville Center
Mon 09:45:52 AM 33.4111 -81.0064 31° Northeast 204 235 13,000  Level Jacksonville Center
Mon 09:46:52 AM 33.4586 -80.9731 30° Northeast 204 235 13,000  Level Jacksonville Center
Mon 09:47:52 AM 33.5083 -80.9347 33° Northeast 204 235 13,000  Level Jacksonville Center
Mon 09:48:52 AM 33.5597 -80.8986 30° Northeast 204 235 13,000  Level Jacksonville Center
Mon 09:49:52 AM 33.6114 -80.8600 32° Northeast 204 235 13,000  Level Jacksonville Center
Mon 09:50:52 AM 33.6608 -80.8264 29° Northeast 204 235 13,000  Level Jacksonville Center
Mon 09:51:52 AM 33.7103 -80.7903 31° Northeast 204 235 13,000  Level Jacksonville Center
Mon 09:52:52 AM 33.7597 -80.7517 33° Northeast 204 235 13,000  Level Jacksonville Center
Mon 09:53:52 AM 33.8114 -80.7156 30° Northeast 204 235 13,000  Level Jacksonville Center
Mon 09:54:52 AM 33.8586 -80.6792 33° Northeast 204 235 13,000  Level Jacksonville Center
Mon 09:55:52 AM 33.9103 -80.6428 30° Northeast 204 235 13,000  Level Jacksonville Center
Mon 09:56:52 AM 33.9597 -80.6067 31° Northeast 204 235 13,000  Level Jacksonville Center
Mon 09:57:52 AM 34.0111 -80.5678 32° Northeast 204 235 13,000  Level Jacksonville Center
Mon 09:58:52 AM 34.0647 -80.5311 30° Northeast 204 235 13,000  Level Jacksonville Center
Mon 09:59:52 AM 34.1142 -80.4922 33° Northeast 204 235 13,000  Level Jacksonville Center
Mon 10:00:52 AM 34.1656 -80.4556 31° Northeast 204 235 13,000  Level Jacksonville Center
Mon 10:01:52 AM 34.2147 -80.4167 33° Northeast 204 235 13,000  Level Jacksonville Center
Mon 10:02:52 AM 34.2683 -80.3775 31° Northeast 204 235 13,000  Level Jacksonville Center
Mon 10:03:52 AM 34.3156 -80.3458 29° Northeast 203 234 13,000  Level Jacksonville Center
Mon 10:04:52 AM 34.3689 -80.3042 33° Northeast 208 239 13,000  Level Jacksonville Center
Mon 10:05:52 AM 34.4183 -80.2647 33° Northeast 208 239 13,000  Level Jacksonville Center
Mon 10:06:52 AM 34.4694 -80.2231 34° Northeast 203 234 13,000  Level Jacksonville Center
Mon 10:08:35 AM 34.5475 -80.1683 30° Northeast 204 235 13,000  Level Washington Center
Mon 10:09:36 AM 34.5989 -80.1308 31° Northeast 211 243 13,000 49 Level Washington Center
Mon 10:10:37 AM 34.6483 -80.0933 32° Northeast 217 250 13,100 49 Climbing Washington Center
Mon 10:11:38 AM 34.6978 -80.0556 32° Northeast 212 244 13,100  Level Washington Center
Mon 10:12:36 AM 34.7578 -80.0083 33° Northeast 220 253 13,100  Level Washington Center
Mon 10:13:37 AM 34.8008 -79.9753 32° Northeast 215 247 13,100  Level Washington Center
Mon 10:14:37 AM 34.8567 -79.9328 32° Northeast 210 242 13,100  Level Washington Center
Mon 10:15:36 AM 34.9017 -79.8997 31° Northeast 215 247 13,100  Level Washington Center
Mon 10:16:36 AM 34.9575 -79.8569 32° Northeast 215 247 13,100  Level Washington Center
Mon 10:17:37 AM 35.0025 -79.8239 31° Northeast 215 247 13,100  Level Washington Center
Mon 10:18:35 AM 35.0561 -79.7811 33° Northeast 215 247 13,100  Level Washington Center
Mon 10:19:35 AM 35.1011 -79.7478 31° Northeast 215 247 13,100  Level Washington Center
Mon 10:20:36 AM 35.1569 -79.7050 32° Northeast 215 247 13,100  Level Washington Center
Mon 10:21:37 AM 35.2017 -79.6717 31° Northeast 215 247 13,100  Level Washington Center
Mon 10:22:35 AM 35.2556 -79.6286 33° Northeast 215 247 13,100  Level Washington Center
Mon 10:23:36 AM 35.3025 -79.5953 30° Northeast 215 247 13,100 -49 Level Washington Center
Mon 10:24:37 AM 35.3581 -79.5547 31° Northeast 215 247 13,000 -50 Descending Washington Center
Mon 10:25:35 AM 35.4011 -79.5189 34° Northeast 215 247 13,000  Level Washington Center
Mon 10:26:35 AM 35.4586 -79.4783 30° Northeast 215 247 13,000  Level Washington Center
Mon 10:27:36 AM 35.5036 -79.4422 33° Northeast 215 247 13,000  Level Washington Center
Mon 10:28:36 AM 35.5572 -79.4014 32° Northeast 215 247 13,000  Level Washington Center
Mon 10:29:37 AM 35.6042 -79.3628 34° Northeast 220 253 13,000  Level Washington Center
Mon 10:30:35 AM 35.6597 -79.3194 32° Northeast 214 246 13,000  Level Washington Center
Mon 10:31:35 AM 35.7047 -79.2856 31° Northeast 214 246 13,000  Level Washington Center
Mon 10:32:36 AM 35.7603 -79.2422 32° Northeast 214 246 13,000  Level Washington Center
Mon 10:33:37 AM 35.8053 -79.2083 31° Northeast 214 246 13,000  Level Washington Center
Mon 10:34:35 AM 35.8608 -79.1647 32° Northeast 214 246 13,000  Level Washington Center
Mon 10:35:36 AM 35.9056 -79.1308 32° Northeast 214 246 13,000  Level Washington Center
Mon 10:36:37 AM 35.9589 -79.0897 32° Northeast 214 246 13,000  Level Washington Center
Mon 10:37:35 AM 36.0100 -79.0508 32° Northeast 214 246 13,000  Level Washington Center
Mon 10:38:35 AM 36.0592 -79.0119 33° Northeast 214 246 13,000  Level Washington Center
Mon 10:39:36 AM 36.1103 -78.9731 32° Northeast 214 246 13,000  Level Washington Center
Mon 10:40:37 AM 36.1617 -78.9289 35° Northeast 219 252 13,000  Level Washington Center
Mon 10:41:36 AM 36.2025 -78.8894 38° Northeast 219 252 13,000  Level Washington Center
Mon 10:42:37 AM 36.2581 -78.8428 34° Northeast 219 252 13,000  Level Washington Center
Mon 10:43:37 AM 36.3028 -78.8111 30° Northeast 214 246 13,000  Level Washington Center
Mon 10:44:35 AM 36.3539 -78.7694 33° Northeast 219 252 13,000  Level Washington Center
Mon 10:45:36 AM 36.3986 -78.7350 32° Northeast 214 246 13,000  Level Washington Center
Mon 10:46:37 AM 36.4561 -78.6933 30° Northeast 214 246 13,000  Level Washington Center
Mon 10:47:35 AM 36.5050 -78.6542 33° Northeast 214 246 13,000  Level Washington Center
Mon 10:48:36 AM 36.5561 -78.6147 32° Northeast 214 246 13,000  Level Washington Center
Mon 10:49:37 AM 36.6069 -78.5778 30° Northeast 214 246 13,000  Level Washington Center
Mon 10:50:37 AM 36.6542 -78.5356 36° Northeast 214 246 13,000  Level Washington Center
Mon 10:51:35 AM 36.7053 -78.4908 35° Northeast 214 246 13,000  Level Washington Center
Mon 10:52:36 AM 36.7583 -78.4489 32° Northeast 214 246 13,000  Level Washington Center
Mon 10:53:37 AM 36.8072 -78.4092 33° Northeast 214 246 13,000  Level Washington Center
Mon 10:54:35 AM 36.8603 -78.3694 31° Northeast 214 246 13,000  Level Washington Center
Mon 10:55:36 AM 36.9092 -78.3297 33° Northeast 214 246 13,000  Level Washington Center
Mon 10:56:37 AM 36.9539 -78.2950 32° Northeast 214 246 13,000  Level Washington Center
Mon 10:57:37 AM 37.0047 -78.2550 32° Northeast 214 246 13,000  Level Washington Center
Mon 10:58:35 AM 37.0536 -78.2153 33° Northeast 214 246 13,000  Level Washington Center
Mon 10:59:36 AM 37.1003 -78.1778 33° Northeast 214 246 13,000  Level Washington Center
Mon 11:00:35 AM 37.1472 -78.1375 34° Northeast 209 241 13,000  Level Washington Center
Mon 11:01:35 AM 37.1958 -78.1000 32° Northeast 204 235 13,000  Level Washington Center
Mon 11:02:36 AM 37.2447 -78.0572 35° Northeast 204 235 13,000  Level Washington Center
Mon 11:03:36 AM 37.2936 -78.0197 31° Northeast 204 235 13,000 50 Level Washington Center
Mon 11:04:37 AM 37.3422 -77.9794 33° Northeast 204 235 13,100  Climbing Washington Center
Mon 11:05:35 AM 37.3911 -77.9417 32° Northeast 204 235 13,000  Descending Washington Center
Mon 11:06:35 AM 37.4400 -77.8989 35° Northeast 204 235 13,100 -149 Climbing Washington Center
Mon 11:07:36 AM 37.4906 -77.8586 32° Northeast 210 242 12,700 -443 Descending Washington Center
Mon 11:08:37 AM 37.5456 -77.8183 30° Northeast 215 247 12,200 -545 Descending Washington Center
Mon 11:09:37 AM 37.6069 -77.7833 24° Northeast 220 253 11,600 -610 Descending Washington Center
Mon 11:10:35 AM 37.6636 -77.7508 24° Northeast 220 253 11,000 -655 Descending Washington Center
Mon 11:11:36 AM 37.7206 -77.7158 26° Northeast 220 253 10,300 -689 Descending Washington Center
Mon 11:12:37 AM 37.7797 -77.6831 24° Northeast 220 253 9,600 -694 Descending Washington Center
Mon 11:13:37 AM 37.8344 -77.6481 27° Northeast 220 253 8,900 -712 Descending Washington Center
Mon 11:14:35 AM 37.8914 -77.6153 24° Northeast 220 253 8,200 -706 Descending Washington Center
Mon 11:15:36 AM 37.9503 -77.5825 24° Northeast 220 253 7,500 -738 Descending Washington Center
Mon 11:16:37 AM 38.0072 -77.5472 26° Northeast 220 253 6,700 -892 Descending Washington Center
Mon 11:18:51 AM 38.1500 -77.4667 24° Northeast 226 260 4,600 -940 Descending Potomac TRACON

Login

Don't have an account? Register now (free) for customized features, flight alerts, and more!